Time;durP1;ratioP1;P1;durP2;ratioP2;P2;SDS_P1;SDS_P2;PMS_P1;PMS_P2;Temp;Humidity;BMP_temperature;BMP_pressure;BME280_temperature;BME280_humidity;BME280_pressure;Samples;Min_cycle;Max_cycle;Signal;HPM_P1;HPM_P2
2021/05/25 00:01:14;;;;;;;4.65;3.20;;;;;;;13.06;72.43;100057.80;127926;1104;22353;-78
2021/05/25 00:03:44;;;;;;;4.28;2.68;;;;;;;13.04;72.12;100057.16;128021;1101;25016;-78
2021/05/25 00:06:14;;;;;;;3.68;2.93;;;;;;;13.08;72.46;100046.99;127947;1101;22364;-78
2021/05/25 00:08:44;;;;;;;6.10;3.33;;;;;;;13.09;72.08;100043.31;128052;1097;22362;-78
2021/05/25 00:11:13;;;;;;;4.48;2.63;;;;;;;13.15;72.37;100042.55;128222;1098;22350;-79
2021/05/25 00:13:43;;;;;;;4.95;2.90;;;;;;;13.22;72.48;100047.91;127998;1101;22432;-79
2021/05/25 00:16:13;;;;;;;3.48;3.03;;;;;;;13.26;72.09;100043.89;128240;1101;23149;-79
2021/05/25 00:18:42;;;;;;;5.05;3.40;;;;;;;13.21;72.15;100041.79;128234;1101;22378;-79
2021/05/25 00:21:12;;;;;;;7.20;2.70;;;;;;;13.17;72.05;100044.02;128198;1101;22397;-78
2021/05/25 00:23:42;;;;;;;4.53;3.23;;;;;;;13.18;72.27;100031.56;128231;1098;22452;-78
2021/05/25 00:26:12;;;;;;;4.55;3.15;;;;;;;13.18;72.25;100021.77;128256;1101;22380;-77
2021/05/25 00:28:42;;;;;;;4.13;2.78;;;;;;;13.23;72.38;100026.52;128010;1105;22380;-79
2021/05/25 00:31:12;;;;;;;4.83;2.95;;;;;;;13.29;72.49;100019.63;127991;1101;22373;-77
2021/05/25 00:33:41;;;;;;;3.20;2.88;;;;;;;13.36;71.92;100016.03;127944;1104;22449;-78
2021/05/25 00:36:11;;;;;;;3.95;2.70;;;;;;;13.38;72.19;100013.17;127575;1105;22394;-78
2021/05/25 00:38:41;;;;;;;6.58;3.03;;;;;;;13.43;71.97;100016.08;127963;1101;22382;-78
2021/05/25 00:41:11;;;;;;;4.05;2.90;;;;;;;13.42;72.18;100007.27;127945;1101;22382;-78
2021/05/25 00:43:40;;;;;;;4.27;2.60;;;;;;;13.44;71.79;100015.05;127961;1101;24653;-78
2021/05/25 00:46:10;;;;;;;4.73;2.43;;;;;;;13.46;71.61;100007.70;127964;1103;22397;-77
2021/05/25 00:48:41;;;;;;;4.10;2.70;;;;;;;13.47;71.53;100006.70;128238;1098;22356;-77
2021/05/25 00:51:10;;;;;;;4.55;2.53;;;;;;;13.48;71.34;100005.68;128257;1098;22352;-78
2021/05/25 00:53:41;;;;;;;4.15;2.40;;;;;;;13.46;71.20;100002.39;127930;1104;22649;-77
2021/05/25 00:56:11;;;;;;;5.48;2.45;;;;;;;13.45;71.28;100006.06;127939;1104;22407;-78
2021/05/25 00:58:42;;;;;;;4.58;2.88;;;;;;;13.44;71.13;100000.97;128022;1101;22592;-78
2021/05/25 01:01:11;;;;;;;6.23;3.10;;;;;;;13.45;71.06;99994.64;127935;1104;23117;-78
2021/05/25 01:03:42;;;;;;;5.78;2.95;;;;;;;13.48;71.18;99988.94;127987;1104;22482;-78
2021/05/25 01:06:12;;;;;;;5.23;2.83;;;;;;;13.50;71.27;99989.58;127866;1101;22369;-78
2021/05/25 01:08:42;;;;;;;3.70;3.00;;;;;;;13.53;70.81;99983.85;127907;1100;24281;-78
2021/05/25 01:11:14;;;;;;;7.65;6.85;;;;;;;13.57;71.12;99990.43;127908;1098;24981;-79
2021/05/25 01:13:51;;;;;;;5.28;3.48;;;;;;;13.61;70.79;99992.48;128259;1101;22378;-78
2021/05/25 01:16:26;;;;;;;3.98;2.63;;;;;;;13.59;70.90;99978.58;128014;1102;22351;-79
2021/05/25 01:18:57;;;;;;;3.80;2.70;;;;;;;13.60;70.76;99976.77;128213;1098;24552;-78
2021/05/25 01:21:27;;;;;;;3.90;2.78;;;;;;;13.64;70.67;99978.83;128235;1098;25780;-78
2021/05/25 01:23:57;;;;;;;6.13;3.05;;;;;;;13.61;70.17;99975.75;128236;1101;22365;-79
2021/05/25 01:26:27;;;;;;;4.50;2.70;;;;;;;13.54;70.29;99969.59;127985;1101;24492;-79
2021/05/25 01:28:57;;;;;;;6.38;2.98;;;;;;;13.49;70.26;99972.81;127909;1104;22833;-78
2021/05/25 01:31:27;;;;;;;6.50;2.80;;;;;;;13.42;70.01;99982.58;127878;1105;22516;-77
2021/05/25 01:33:57;;;;;;;4.50;2.78;;;;;;;13.37;70.29;99966.44;127920;1101;24242;-77
2021/05/25 01:36:26;;;;;;;4.33;2.85;;;;;;;13.37;70.63;99967.25;127928;1101;22987;-77
2021/05/25 01:38:56;;;;;;;3.93;2.98;;;;;;;13.34;70.80;99966.83;127887;1101;24258;-78
2021/05/25 01:41:26;;;;;;;4.15;2.38;;;;;;;13.34;70.94;99962.33;127904;1104;22472;-78
2021/05/25 01:43:55;;;;;;;5.33;2.68;;;;;;;13.34;70.74;99959.68;127926;1101;22355;-78
2021/05/25 01:46:25;;;;;;;4.75;2.55;;;;;;;13.31;71.28;99956.59;128199;1100;22395;-78
2021/05/25 01:48:55;;;;;;;5.30;3.00;;;;;;;13.27;71.03;99953.52;127990;1102;22822;-79
2021/05/25 01:51:25;;;;;;;6.68;3.45;;;;;;;13.25;71.25;99952.88;128192;1101;22398;-78
2021/05/25 01:53:55;;;;;;;4.67;2.90;;;;;;;13.30;71.83;99947.02;128206;1101;22383;-79
2021/05/25 01:56:24;;;;;;;3.28;2.55;;;;;;;13.33;71.38;99941.32;128186;1098;24495;-78
2021/05/25 01:58:54;;;;;;;3.53;2.50;;;;;;;13.33;71.79;99944.78;127922;1101;22380;-78
2021/05/25 02:01:24;;;;;;;4.80;2.70;;;;;;;13.33;72.02;99947.44;127933;1101;22389;-78
2021/05/25 02:03:53;;;;;;;5.65;2.48;;;;;;;13.31;71.79;99943.34;127883;1101;22372;-78
2021/05/25 02:06:23;;;;;;;4.65;3.10;;;;;;;13.21;71.55;99940.19;127918;1105;22449;-78
2021/05/25 02:08:55;;;;;;;4.05;2.90;;;;;;;13.12;72.54;99932.37;127955;1104;22387;-79
2021/05/25 02:11:25;;;;;;;3.50;3.10;;;;;;;13.12;72.59;99920.95;127522;1108;22465;-77
2021/05/25 02:13:55;;;;;;;4.13;2.68;;;;;;;13.17;72.84;99916.70;127392;1103;24297;-77
2021/05/25 02:16:25;;;;;;;5.30;3.10;;;;;;;13.21;73.01;99908.36;127460;1105;22409;-77
2021/05/25 02:18:54;;;;;;;6.63;3.00;;;;;;;13.18;72.83;99904.25;127925;1104;22394;-77
2021/05/25 02:21:24;;;;;;;4.83;3.18;;;;;;;13.17;72.84;99908.75;127987;1104;22417;-77
2021/05/25 02:23:53;;;;;;;4.50;3.23;;;;;;;13.17;73.10;99900.79;127950;1101;22396;-77
2021/05/25 02:26:24;;;;;;;4.03;3.07;;;;;;;13.19;73.14;99901.42;127936;1104;22415;-77
2021/05/25 02:28:55;;;;;;;6.93;3.68;;;;;;;13.20;73.07;99891.63;127938;1101;22409;-78
2021/05/25 02:31:25;;;;;;;4.23;3.05;;;;;;;13.21;73.08;99898.56;128212;1101;22764;-78
2021/05/25 02:33:55;;;;;;;5.80;3.40;;;;;;;13.22;73.13;99902.03;128008;1101;22369;-78
2021/05/25 02:36:25;;;;;;;4.30;3.05;;;;;;;13.19;72.90;99896.13;127996;1098;22350;-78
2021/05/25 02:38:55;;;;;;;6.38;3.53;;;;;;;13.14;72.94;99895.06;127936;1101;23304;-78
2021/05/25 02:41:24;;;;;;;4.83;3.20;;;;;;;13.08;72.90;99891.34;127961;1104;22384;-78
2021/05/25 02:43:54;;;;;;;5.90;3.35;;;;;;;13.03;73.33;99891.13;127959;1104;22348;-78
2021/05/25 02:46:25;;;;;;;4.88;3.18;;;;;;;13.00;73.46;99890.70;127914;1104;22404;-78
2021/05/25 02:48:55;;;;;;;6.20;4.50;;;;;;;12.99;73.35;99905.77;127530;1104;22359;-79
2021/05/25 02:51:25;;;;;;;4.25;3.35;;;;;;;12.95;73.66;99904.52;127903;1104;22989;-79
2021/05/25 02:53:55;;;;;;;4.57;3.40;;;;;;;12.92;73.78;99899.61;127595;1105;22350;-79
2021/05/25 02:56:24;;;;;;;5.53;3.75;;;;;;;12.90;74.06;99906.95;127516;1104;22484;-79
2021/05/25 02:58:54;;;;;;;5.48;3.85;;;;;;;12.86;73.99;99901.22;127523;1105;22367;-80
2021/05/25 03:01:24;;;;;;;5.73;3.53;;;;;;;12.83;74.07;99903.41;127965;1103;22360;-78
2021/05/25 03:03:55;;;;;;;4.45;4.03;;;;;;;12.83;74.26;99896.30;128037;1102;22370;-79
2021/05/25 03:06:24;;;;;;;5.70;4.10;;;;;;;12.84;74.36;99895.28;127922;1101;22356;-78
2021/05/25 03:08:54;;;;;;;6.93;4.23;;;;;;;12.86;74.32;99898.57;127915;1104;24006;-78
2021/05/25 03:11:24;;;;;;;5.50;4.50;;;;;;;12.87;74.61;99896.73;127501;1104;22362;-78
2021/05/25 03:13:54;;;;;;;5.15;3.98;;;;;;;12.87;74.43;99888.78;127458;1108;22389;-78
2021/05/25 03:16:23;;;;;;;6.80;4.63;;;;;;;12.85;74.34;99896.91;127474;1107;22361;-78
2021/05/25 03:18:53;;;;;;;5.10;4.38;;;;;;;12.87;74.60;99891.43;127414;1108;22397;-78
2021/05/25 03:21:23;;;;;;;5.80;5.20;;;;;;;12.86;74.14;99887.13;127227;1104;22367;-78
2021/05/25 03:23:54;;;;;;;8.25;5.08;;;;;;;12.84;74.53;99886.52;127532;1104;24173;-79
2021/05/25 03:26:24;;;;;;;7.48;4.63;;;;;;;12.81;74.43;99893.02;127638;1105;22498;-78
2021/05/25 03:28:54;;;;;;;5.38;4.13;;;;;;;12.81;74.58;99900.15;127529;1101;23145;-78
2021/05/25 03:31:24;;;;;;;5.75;4.43;;;;;;;12.83;74.90;99903.41;127948;1102;22386;-79
2021/05/25 03:33:54;;;;;;;7.50;4.73;;;;;;;12.86;74.82;99900.38;127928;1101;25029;-79
2021/05/25 03:36:24;;;;;;;6.68;4.83;;;;;;;12.86;74.63;99905.67;127941;1102;22378;-78
2021/05/25 03:38:54;;;;;;;6.95;5.53;;;;;;;12.88;75.09;99904.48;127946;1101;22368;-78
2021/05/25 03:41:23;;;;;;;9.73;5.60;;;;;;;12.93;74.64;99915.33;127917;1101;24511;-78
2021/05/25 03:43:53;;;;;;;8.35;6.15;;;;;;;12.98;74.87;99919.23;127918;1101;22401;-77
2021/05/25 03:46:23;;;;;;;7.90;5.58;;;;;;;12.97;74.81;99918.41;127882;1104;22373;-77
2021/05/25 03:48:53;;;;;;;11.23;6.05;;;;;;;13.00;74.77;99922.52;127931;1101;23251;-77
2021/05/25 03:51:22;;;;;;;8.13;5.90;;;;;;;13.03;74.79;99922.10;127954;1104;22394;-77
2021/05/25 03:53:53;;;;;;;7.80;5.13;;;;;;;13.05;74.91;99917.44;127930;1105;23224;-78
2021/05/25 03:56:34;;;;;;;;;;;;;;;13.01;74.65;99916.19;127981;1101;24261;-78
2021/05/25 03:59:04;;;;;;;7.25;4.98;;;;;;;12.98;74.91;99914.73;127992;1101;22051;-78
2021/05/25 04:01:36;;;;;;;6.48;4.90;;;;;;;13.00;74.90;99907.42;128201;1098;24482;-78
2021/05/25 04:04:06;;;;;;;5.80;5.20;;;;;;;13.06;74.97;99911.11;128214;1101;22380;-78
2021/05/25 04:06:36;;;;;;;8.75;4.98;;;;;;;13.11;74.78;99906.05;128037;1098;24481;-77
2021/05/25 04:09:08;;;;;;;5.55;4.85;;;;;;;13.12;74.77;99905.03;128193;1101;22469;-77
2021/05/25 04:11:37;;;;;;;;;;;;;;;13.08;74.73;99903.79;128283;1100;22374;-78
2021/05/25 04:14:07;;;;;;;7.23;5.10;;;;;;;13.04;74.87;99913.97;128193;1098;21271;-78
2021/05/25 04:16:41;;;;;;;8.03;5.20;;;;;;;13.06;74.85;99914.61;128051;1098;25928;-77
2021/05/25 04:19:11;;;;;;;7.53;4.95;;;;;;;13.11;75.10;99908.70;128062;1101;22471;-78
2021/05/25 04:21:41;;;;;;;8.78;6.93;;;;;;;13.15;74.78;99910.77;128003;1098;24712;-77
2021/05/25 04:24:10;;;;;;;9.65;6.85;;;;;;;13.16;74.73;99898.31;127998;1098;24265;-79
2021/05/25 04:26:40;;;;;;;8.15;6.65;;;;;;;13.19;74.83;99905.88;128062;1098;22408;-79
2021/05/25 04:29:11;;;;;;;9.40;7.60;;;;;;;13.23;74.73;99898.35;128260;1101;22351;-79
2021/05/25 04:31:40;;;;;;;8.50;6.78;;;;;;;13.25;74.68;99899.02;127977;1101;22384;-79
2021/05/25 04:34:10;;;;;;;8.75;6.85;;;;;;;13.26;74.78;99898.84;127681;1103;22900;-79
2021/05/25 04:36:40;;;;;;;7.48;6.75;;;;;;;13.31;74.78;99896.40;127502;1103;22665;-78
2021/05/25 04:39:10;;;;;;;8.03;5.43;;;;;;;13.36;74.58;99895.80;127583;1103;22377;-78
2021/05/25 04:41:40;;;;;;;7.03;4.95;;;;;;;13.35;74.31;99910.09;127557;1104;22491;-79
2021/05/25 04:44:10;;;;;;;7.90;4.95;;;;;;;13.33;74.52;99898.88;127875;1103;22362;-79
2021/05/25 04:46:40;;;;;;;5.88;4.63;;;;;;;13.36;74.38;99898.45;127586;1105;22401;-78
2021/05/25 04:49:14;;;;;;;6.98;4.75;;;;;;;13.34;74.29;99909.27;127612;1105;22379;-78
2021/05/25 04:51:43;;;;;;;6.10;4.55;;;;;;;13.35;74.62;99899.48;127536;1102;22435;-78
2021/05/25 04:54:13;;;;;;;6.83;4.35;;;;;;;13.43;74.83;99899.33;128009;1098;25116;-79
2021/05/25 04:56:44;;;;;;;7.78;4.00;;;;;;;13.52;74.51;99892.00;128367;1098;24502;-80
2021/05/25 04:59:14;;;;;;;8.00;4.03;;;;;;;13.57;74.25;99901.02;128329;1098;24498;-79
2021/05/25 05:01:51;;;;;;;6.43;4.40;;;;;;;13.68;74.41;99901.45;128359;1101;22383;-79
2021/05/25 05:04:21;;;;;;;5.23;3.70;;;;;;;13.76;73.86;99907.42;128005;1101;22383;-78
2021/05/25 05:06:53;;;;;;;4.93;3.90;;;;;;;13.80;73.92;99902.53;128317;1098;22354;-79
2021/05/25 05:09:24;;;;;;;5.45;3.78;;;;;;;13.88;74.10;99899.68;128271;1101;22367;-79
2021/05/25 05:11:54;;;;;;;5.60;3.85;;;;;;;13.97;73.57;99902.98;128234;1101;22364;-79
2021/05/25 05:14:24;;;;;;;4.40;3.60;;;;;;;14.06;73.78;99907.06;128256;1098;22472;-80
2021/05/25 05:16:54;;;;;;;7.38;3.80;;;;;;;14.15;73.08;99905.05;128225;1098;22472;-79
2021/05/25 05:19:25;;;;;;;9.25;4.75;;;;;;;14.18;72.77;99912.63;128282;1101;22365;-79
2021/05/25 05:21:54;;;;;;;5.15;3.70;;;;;;;14.27;72.87;99914.07;128268;1098;22367;-78
2021/05/25 05:24:25;;;;;;;4.35;3.63;;;;;;;14.32;72.67;99920.39;128059;1102;22812;-79
2021/05/25 05:26:55;;;;;;;9.25;3.33;;;;;;;14.38;72.35;99928.59;128263;1101;23772;-79
2021/05/25 05:29:24;;;;;;;7.38;3.60;;;;;;;14.47;72.31;99928.19;128032;1101;22367;-79
2021/05/25 05:31:54;;;;;;;12.55;4.18;;;;;;;14.59;72.25;99928.42;128062;1101;22430;-79
2021/05/25 05:34:24;;;;;;;8.33;3.33;;;;;;;14.72;71.93;99924.95;128252;1101;25006;-79
2021/05/25 05:36:54;;;;;;;8.03;4.40;;;;;;;14.83;71.57;99940.30;127942;1104;22451;-78
2021/05/25 05:39:24;;;;;;;10.08;6.05;;;;;;;14.93;71.03;99938.05;127910;1104;22366;-79
2021/05/25 05:41:54;;;;;;;9.40;3.65;;;;;;;15.06;70.80;99934.52;128199;1101;24281;-79
2021/05/25 05:44:24;;;;;;;11.93;3.50;;;;;;;15.22;70.63;99936.74;128188;1101;22405;-79
2021/05/25 05:46:54;;;;;;;7.28;3.35;;;;;;;15.41;70.03;99942.23;127969;1104;22363;-79
2021/05/25 05:49:24;;;;;;;5.45;2.75;;;;;;;15.64;70.39;99950.56;127544;1105;22374;-80
2021/05/25 05:51:54;;;;;;;4.78;2.45;;;;;;;16.01;69.63;99945.51;127471;1104;22394;-80
2021/05/25 05:54:23;;;;;;;6.38;2.50;;;;;;;16.32;68.11;99944.70;127517;1102;22387;-80
2021/05/25 05:56:53;;;;;;;15.63;4.08;;;;;;;16.57;67.55;99946.59;127050;1105;22630;-80
2021/05/25 05:59:23;;;;;;;8.65;2.80;;;;;;;16.68;65.84;99953.88;127478;1108;22413;-80
2021/05/25 06:01:53;;;;;;;5.55;2.50;;;;;;;16.67;65.18;99954.92;127432;1104;24528;-79
2021/05/25 06:04:23;;;;;;;3.53;2.45;;;;;;;16.68;64.72;99957.36;127478;1107;22697;-80
2021/05/25 06:06:53;;;;;;;8.53;3.08;;;;;;;16.63;64.66;99954.55;127503;1105;22504;-79
2021/05/25 06:09:22;;;;;;;10.35;3.10;;;;;;;16.53;63.87;99956.04;127143;1108;22414;-79
2021/05/25 06:11:53;;;;;;;12.43;3.95;;;;;;;16.53;64.42;99956.04;127472;1107;22394;-80
2021/05/25 06:14:24;;;;;;;7.80;3.15;;;;;;;16.53;64.15;99966.70;127542;1101;22413;-80
2021/05/25 06:16:55;;;;;;;6.25;3.50;;;;;;;16.59;64.03;99955.17;127941;1104;22391;-79
2021/05/25 06:19:25;;;;;;;11.33;8.73;;;;;;;16.54;64.23;99963.03;127942;1104;22356;-79
2021/05/25 06:21:55;;;;;;;8.40;3.58;;;;;;;16.57;63.97;99958.08;127491;1107;22411;-79
2021/05/25 06:24:25;;;;;;;5.38;2.95;;;;;;;16.63;63.48;99946.55;127548;1108;23536;-84
2021/05/25 06:26:55;;;;;;;7.43;4.18;;;;;;;16.77;63.91;99935.80;127824;1105;24117;-79
2021/05/25 06:29:25;;;;;;;6.65;2.85;;;;;;;17.21;64.31;99940.09;127966;1104;22487;-79
2021/05/25 06:31:59;;;;;;;8.78;3.60;;;;;;;17.81;63.34;99948.27;128227;1104;22399;-80
2021/05/25 06:34:32;;;;;;;3.30;2.08;;;;;;;18.43;62.18;99939.21;127706;1107;22465;-80
2021/05/25 06:37:02;;;;;;;6.68;2.90;;;;;;;19.04;60.93;99946.85;127730;1104;23060;-79
2021/05/25 06:39:31;;;;;;;5.08;2.63;;;;;;;19.67;58.87;99939.92;127832;1101;22391;-81
2021/05/25 06:42:01;;;;;;;4.50;2.40;;;;;;;20.17;57.19;99939.26;127950;1104;22356;-80
2021/05/25 06:44:32;;;;;;;4.20;2.17;;;;;;;20.57;55.72;99935.68;128187;1104;22357;-80
2021/05/25 06:47:02;;;;;;;5.50;2.63;;;;;;;20.79;54.03;99933.09;127956;1101;24190;-81
2021/05/25 06:49:32;;;;;;;4.78;2.80;;;;;;;20.87;52.58;99929.98;127907;1104;22410;-80
2021/05/25 06:52:02;;;;;;;4.95;2.20;;;;;;;20.79;52.45;99933.09;127813;1104;22387;-79
2021/05/25 06:54:33;;;;;;;5.25;2.70;;;;;;;20.83;51.96;99941.46;128106;1104;22378;-81
2021/05/25 06:57:04;;;;;;;3.63;2.13;;;;;;;20.78;51.56;99926.07;127956;1101;24912;-80
2021/05/25 06:59:36;;;;;;;7.05;2.40;;;;;;;20.78;51.89;99928.75;128337;1098;24271;-80
2021/05/25 07:02:06;;;;;;;2.88;2.18;;;;;;;20.77;51.20;99943.24;128288;1101;22374;-79
2021/05/25 07:04:36;;;;;;;3.35;2.48;;;;;;;20.66;50.59;99946.84;127987;1101;23124;-79
2021/05/25 07:07:06;;;;;;;4.78;2.15;;;;;;;20.47;50.69;99948.09;128033;1101;22817;-80
2021/05/25 07:09:36;;;;;;;5.33;2.90;;;;;;;20.28;50.83;99955.53;128133;1098;24274;-80
2021/05/25 07:12:07;;;;;;;4.65;2.15;;;;;;;20.07;50.95;99952.48;128236;1101;22383;-81
2021/05/25 07:14:38;;;;;;;2.43;1.95;;;;;;;19.81;51.48;99950.37;128292;1101;22365;-80
2021/05/25 07:17:08;;;;;;;3.35;2.00;;;;;;;19.54;51.63;99950.88;128506;1101;22384;-79
2021/05/25 07:19:39;;;;;;;4.45;2.05;;;;;;;19.26;52.16;99948.95;128305;1098;23236;-79
2021/05/25 07:22:09;;;;;;;4.63;2.20;;;;;;;19.02;52.89;99958.83;128033;1098;22361;-79
2021/05/25 07:24:40;;;;;;;5.10;2.68;;;;;;;18.78;52.91;99952.66;128014;1101;22360;-79
2021/05/25 07:27:11;;;;;;;3.53;2.38;;;;;;;18.55;53.41;99951.53;128310;1101;22377;-80
2021/05/25 07:29:41;;;;;;;2.88;2.33;;;;;;;18.55;54.98;99956.08;128142;1104;22261;-80
2021/05/25 07:32:11;;;;;;;9.98;3.43;;;;;;;18.76;54.97;99954.73;127799;1105;22431;-81
2021/05/25 07:34:40;;;;;;;6.75;3.03;;;;;;;18.93;54.34;99960.25;127832;1103;24599;-80
2021/05/25 07:37:10;;;;;;;5.13;3.35;;;;;;;19.01;53.99;99968.73;127771;1104;23208;-80
2021/05/25 07:39:40;;;;;;;3.85;3.33;;;;;;;19.04;54.20;99962.91;127666;1107;22444;-80
2021/05/25 07:42:10;;;;;;;7.30;2.95;;;;;;;18.98;53.35;99965.70;127694;1107;22786;-80
2021/05/25 07:44:40;;;;;;;9.87;3.53;;;;;;;18.80;53.78;99962.09;127716;1105;22481;-79
2021/05/25 07:47:10;;;;;;;3.33;2.55;;;;;;;18.67;53.90;99972.98;127529;1105;22379;-79
2021/05/25 07:49:40;;;;;;;8.93;2.90;;;;;;;18.54;54.50;99984.69;127812;1098;22438;-79
2021/05/25 07:52:10;;;;;;;4.65;2.53;;;;;;;18.43;54.38;99982.81;128036;1101;22663;-79
2021/05/25 07:54:41;;;;;;;3.55;2.43;;;;;;;18.31;54.71;99992.64;128249;1101;22365;-79
2021/05/25 07:57:13;;;;;;;5.90;2.53;;;;;;;18.26;55.41;99981.80;128503;1101;22369;-80
2021/05/25 07:59:43;;;;;;;3.90;2.15;;;;;;;18.36;55.34;99982.09;128255;1098;25782;-79
2021/05/25 08:02:13;;;;;;;4.43;2.53;;;;;;;18.54;55.34;99983.88;128229;1101;22386;-80
2021/05/25 08:04:44;;;;;;;7.05;2.43;;;;;;;18.83;55.41;99982.23;128310;1101;22443;-80
2021/05/25 08:07:13;;;;;;;5.10;3.30;;;;;;;19.14;54.81;99978.40;128502;1101;22453;-79
2021/05/25 08:09:47;;;;;;;4.75;2.80;;;;;;;19.23;54.47;99987.72;128128;1105;22406;-79
2021/05/25 08:12:17;;;;;;;4.03;2.60;;;;;;;19.20;53.05;99998.08;127451;1108;22476;-80
2021/05/25 08:14:51;;;;;;;6.35;2.50;;;;;;;19.05;53.17;99996.66;127742;1104;22451;-80
2021/05/25 08:17:33;;;;;;;4.20;1.95;;;;;;;18.97;53.65;99998.88;127610;1108;22561;-79
2021/05/25 08:20:17;;;;;;;2.90;1.88;;;;;;;18.78;53.02;100009.66;127508;1108;22415;-79
2021/05/25 08:23:12;;;;;;;4.45;1.68;;;;;;;18.69;53.30;100010.19;127477;1105;22438;-79
2021/05/25 08:25:44;;;;;;;6.58;2.00;;;;;;;18.70;52.81;100006.48;127670;1108;22415;-80
2021/05/25 08:28:14;;;;;;;4.08;2.05;;;;;;;18.89;53.28;100025.97;127796;1108;23345;-80
2021/05/25 08:30:45;;;;;;;10.90;2.85;;;;;;;19.11;52.30;100027.05;127266;1108;22422;-81
2021/05/25 08:33:18;;;;;;;2.75;1.55;;;;;;;19.26;51.72;100042.67;127241;1108;22465;-82
2021/05/25 08:35:50;;;;;;;2.53;1.63;;;;;;;19.25;50.49;100043.70;127319;1108;22515;-81
2021/05/25 08:38:22;;;;;;;3.07;1.67;;;;;;;19.21;50.93;100038.00;127683;1105;22393;-80
2021/05/25 08:40:55;;;;;;;5.00;1.90;;;;;;;19.41;51.71;100047.56;127471;1107;22567;-80
2021/05/25 08:43:32;;;;;;;3.83;1.83;;;;;;;19.69;49.97;100049.54;127821;1104;23307;-78
2021/05/25 08:46:07;;;;;;;5.50;1.80;;;;;;;19.78;49.73;100047.33;127041;1108;22512;-79
2021/05/25 08:48:40;;;;;;;3.05;1.93;;;;;;;19.95;49.40;100058.94;127226;1106;22960;-76
2021/05/25 08:51:11;;;;;;;4.10;1.90;;;;;;;19.99;48.71;100062.77;127196;1105;22373;-78
2021/05/25 08:53:41;;;;;;;4.53;1.68;;;;;;;20.01;49.14;100063.36;127619;1101;22373;-78
2021/05/25 08:56:11;;;;;;;6.43;2.00;;;;;;;19.97;48.76;100065.70;127573;1103;25243;-78
2021/05/25 08:58:41;;;;;;;2.40;1.65;;;;;;;19.83;48.50;100067.02;127530;1107;22532;-78
2021/05/25 09:01:11;;;;;;;4.55;1.80;;;;;;;19.67;49.03;100068.55;127565;1108;22531;-78
2021/05/25 09:04:07;;;;;;;3.55;1.70;;;;;;;19.55;49.13;100080.28;127524;1101;23360;-78
2021/05/25 09:06:50;;;;;;;5.45;2.33;;;;;;;19.35;48.75;100078.76;127938;1104;22375;-77
2021/05/25 09:09:21;;;;;;;3.70;2.38;;;;;;;19.08;49.19;100090.95;127929;1101;24530;-77
2021/05/25 09:12:10;;;;;;;4.63;1.60;;;;;;;18.81;49.21;100081.45;128123;1101;24505;-78
2021/05/25 09:14:49;;;;;;;2.23;1.40;;;;;;;18.55;50.00;100090.64;128006;1098;22368;-77
2021/05/25 09:17:25;;;;;;;3.13;2.00;;;;;;;18.39;50.35;100103.82;128040;1102;22385;-76
2021/05/25 09:19:57;;;;;;;4.78;2.00;;;;;;;18.21;50.30;100108.15;128226;1101;22381;-77
2021/05/25 09:22:41;;;;;;;3.75;2.23;;;;;;;17.98;50.56;100122.18;128255;1098;24953;-78
2021/05/25 09:25:21;;;;;;;6.05;2.33;;;;;;;17.64;50.86;100129.67;128016;1101;22538;-76
2021/05/25 09:27:59;;;;;;;5.08;1.70;;;;;;;17.18;51.55;100128.19;128177;1104;22459;-77
2021/05/25 09:30:32;;;;;;;5.93;1.80;;;;;;;16.82;52.66;100138.69;127845;1101;22383;-77
2021/05/25 09:33:09;;;;;;;3.55;1.53;;;;;;;16.54;53.54;100145.16;127487;1104;22414;-76
2021/05/25 09:35:41;;;;;;;5.10;2.20;;;;;;;16.24;54.80;100153.67;127619;1104;22370;-77
2021/05/25 09:38:27;;;;;;;4.63;2.00;;;;;;;16.06;55.58;100155.34;127532;1105;22769;-77
2021/05/25 09:41:01;;;;;;;4.25;2.28;;;;;;;15.87;56.66;100163.19;127515;1106;22387;-77
2021/05/25 09:43:33;;;;;;;3.38;2.58;;;;;;;15.70;57.43;100169.97;127479;1104;22381;-77
2021/05/25 09:46:13;;;;;;;4.10;2.65;;;;;;;15.51;57.78;100185.69;127646;1104;22343;-76
2021/05/25 09:48:46;;;;;;;3.63;1.73;;;;;;;15.30;58.37;100186.70;128204;1101;25083;-77
2021/05/25 09:51:34;;;;;;;3.33;2.00;;;;;;;15.04;58.87;100194.63;128056;1101;23055;-77
2021/05/25 09:54:24;;;;;;;3.00;2.03;;;;;;;14.78;59.16;100209.47;128191;1098;22382;-77
2021/05/25 09:57:06;;;;;;;3.43;1.95;;;;;;;14.51;58.92;100208.53;128142;1104;23421;-77
2021/05/25 09:59:41;;;;;;;5.80;1.67;;;;;;;14.34;59.30;100209.84;127957;1103;22352;-78
2021/05/25 10:02:22;;;;;;;2.50;1.10;;;;;;;14.27;59.13;100193.05;127897;1104;22355;-79
2021/05/25 10:05:09;;;;;;;2.20;1.48;;;;;;;14.23;59.16;100191.77;127913;1101;24361;-77
2021/05/25 10:07:39;;;;;;;3.30;1.38;;;;;;;14.21;58.89;100186.67;127937;1104;22362;-77
2021/05/25 10:10:11;;;;;;;3.07;1.83;;;;;;;14.25;58.84;100187.09;127912;1104;22710;-77
2021/05/25 10:12:43;;;;;;;5.65;1.73;;;;;;;14.25;58.56;100181.78;127547;1101;25461;-76
2021/05/25 10:15:17;;;;;;;2.33;1.70;;;;;;;14.24;58.38;100190.78;127950;1102;22424;-77
2021/05/25 10:18:08;;;;;;;2.60;1.40;;;;;;;14.26;58.16;100196.70;128302;1098;22468;-76
2021/05/25 10:20:54;;;;;;;2.25;1.33;;;;;;;14.27;57.97;100193.05;128214;1101;23239;-76
2021/05/25 10:23:26;;;;;;;3.48;1.55;;;;;;;14.32;58.08;100196.73;128245;1104;22366;-77
2021/05/25 10:25:57;;;;;;;3.23;1.95;;;;;;;14.36;57.60;100194.50;127503;1105;22828;-76
2021/05/25 10:28:27;;;;;;;5.47;2.67;;;;;;;14.39;57.60;100202.09;127936;1104;22423;-77
2021/05/25 10:30:58;;;;;;;13.30;4.65;;;;;;;14.42;57.68;100211.52;127918;1101;22382;-77
2021/05/25 10:33:30;;;;;;;6.53;2.07;;;;;;;14.43;57.34;100203.36;127962;1104;22396;-76
2021/05/25 10:36:08;;;;;;;;;;;;;;;14.41;57.24;100216.01;127960;1104;22371;-78
2021/05/25 10:39:04;;;;;;;5.53;2.20;;;;;;;14.33;57.20;100201.05;127974;1105;21277;-78
2021/05/25 10:41:36;;;;;;;4.03;2.35;;;;;;;14.38;56.85;100208.42;127476;1101;22366;-78
2021/05/25 10:44:06;;;;;;;3.28;2.28;;;;;;;14.39;56.97;100203.92;128101;1105;23304;-79
2021/05/25 10:46:36;;;;;;;3.83;1.80;;;;;;;14.40;56.79;100210.91;127598;1105;22384;-78
2021/05/25 10:49:12;;;;;;;3.10;1.83;;;;;;;14.39;56.77;100202.09;127961;1104;22371;-78
2021/05/25 10:52:08;;;;;;;4.18;2.30;;;;;;;14.39;56.74;100199.43;127993;1101;24521;-78
2021/05/25 10:54:48;;;;;;;4.75;2.73;;;;;;;14.38;56.55;100197.80;127459;1108;22365;-77
2021/05/25 10:57:33;;;;;;;3.95;2.70;;;;;;;14.40;56.43;100198.44;127524;1105;24485;-77
2021/05/25 11:00:08;;;;;;;4.53;2.68;;;;;;;14.43;56.25;100194.54;127476;1108;22365;-77
2021/05/25 11:02:55;;;;;;;3.30;1.63;;;;;;;14.49;56.14;100205.20;127524;1107;22430;-77
2021/05/25 11:06:00;;;;;;;6.08;2.40;;;;;;;14.53;55.91;100190.56;126989;1108;22381;-78
2021/05/25 11:08:36;;;;;;;5.20;2.55;;;;;;;14.57;55.57;100193.64;126667;1112;22662;-79
2021/05/25 11:11:15;;;;;;;2.68;2.00;;;;;;;14.65;55.51;100216.57;126698;1112;23273;-77
2021/05/25 11:13:51;;;;;;;3.28;2.30;;;;;;;14.72;55.68;100207.59;126941;1111;22778;-77
2021/05/25 11:16:36;;;;;;;7.43;3.40;;;;;;;14.94;56.12;100191.53;126596;1114;22407;-78
2021/05/25 11:19:07;;;;;;;4.60;2.30;;;;;;;15.18;56.17;100188.30;126629;1111;22787;-77
2021/05/25 11:24:52;;;;;;;5.40;2.50;;;;;;;15.63;55.08;100159.28;126854;1111;22405;-77
2021/05/25 11:27:44;;;;;;;2.48;1.70;;;;;;;15.94;54.73;100168.50;127012;1111;22400;-78
2021/05/25 11:30:23;;;;;;;;;;;;;;;16.16;53.93;100180.56;127004;1110;22506;-77
2021/05/25 11:32:56;;;;;;;2.83;1.30;;;;;;;16.27;52.95;100171.09;127423;1107;21303;-77
2021/05/25 11:35:31;;;;;;;3.43;1.48;;;;;;;16.32;52.15;100173.94;127646;1107;22381;-77
2021/05/25 11:38:05;;;;;;;1.75;1.20;;;;;;;16.43;51.19;100157.31;127018;1108;22417;-77
2021/05/25 11:40:37;;;;;;;5.60;1.70;;;;;;;16.50;50.26;100159.95;127336;1105;22916;-77
2021/05/25 11:43:07;;;;;;;2.20;1.03;;;;;;;16.55;50.25;100170.79;127582;1105;22421;-77
2021/05/25 11:45:37;;;;;;;3.53;1.10;;;;;;;16.60;49.54;100170.17;127659;1105;24266;-78
2021/05/25 11:48:08;;;;;;;2.78;1.48;;;;;;;16.61;49.14;100164.61;127984;1101;24212;-78